createdAt,value
2023-05-10T00:01:49.961Z,48.15
2023-05-10T00:04:18.186Z,48.23
2023-05-10T00:06:46.510Z,48.28
2023-05-10T00:09:15.392Z,48.38
2023-05-10T00:11:43.567Z,48.44
2023-05-10T00:14:12.725Z,48.31
2023-05-10T00:16:40.985Z,48.40
2023-05-10T00:19:09.293Z,48.56
2023-05-10T00:21:37.502Z,48.53
2023-05-10T00:24:05.968Z,48.50
2023-05-10T00:26:34.264Z,48.52
2023-05-10T00:29:02.451Z,48.63
2023-05-10T00:31:30.583Z,48.65
2023-05-10T00:33:59.298Z,48.71
2023-05-10T00:36:27.566Z,48.56
2023-05-10T00:38:55.674Z,48.70
2023-05-10T00:41:23.934Z,48.65
2023-05-10T00:43:52.303Z,48.60
2023-05-10T00:46:20.663Z,48.62
2023-05-10T00:48:49.126Z,48.84
2023-05-10T00:51:17.510Z,48.74
2023-05-10T00:53:50.636Z,48.76
2023-05-10T00:56:19.038Z,48.88
2023-05-10T00:58:47.165Z,48.85
2023-05-10T01:01:15.459Z,48.80
2023-05-10T01:03:43.954Z,48.95
2023-05-10T01:06:12.404Z,48.98
2023-05-10T01:08:40.965Z,48.95
2023-05-10T01:11:09.327Z,48.94
2023-05-10T01:13:40.684Z,49.02
2023-05-10T01:16:09.276Z,49.05
2023-05-10T01:18:41.481Z,49.19
2023-05-10T01:21:31.204Z,48.95
2023-05-10T01:24:09.384Z,49.09
2023-05-10T01:26:52.544Z,49.02
2023-05-10T01:29:42.245Z,49.21
2023-05-10T01:32:13.469Z,49.12
2023-05-10T01:34:54.357Z,49.21
2023-05-10T01:37:48.662Z,49.52
2023-05-10T01:40:20.100Z,49.40
2023-05-10T01:42:53.827Z,49.52
2023-05-10T01:45:48.004Z,49.74
2023-05-10T01:48:17.327Z,49.63
2023-05-10T01:50:47.565Z,49.76
2023-05-10T01:53:19.935Z,49.89
2023-05-10T01:55:53.552Z,49.84
2023-05-10T01:58:23.784Z,49.83
2023-05-10T02:00:54.308Z,50.01
2023-05-10T02:03:25.218Z,50.15
2023-05-10T02:05:55.664Z,50.05
2023-05-10T02:08:25.535Z,50.33
2023-05-10T02:10:57.654Z,50.31
2023-05-10T02:13:27.366Z,50.32
2023-05-10T02:15:56.808Z,50.39
2023-05-10T02:18:28.149Z,50.52
2023-05-10T02:20:59.051Z,50.59
2023-05-10T02:23:27.689Z,50.54
2023-05-10T02:25:58.043Z,50.56
2023-05-10T02:28:27.684Z,50.45
2023-05-10T02:30:57.836Z,50.63
2023-05-10T02:33:27.960Z,50.58
2023-05-10T02:35:57.732Z,50.57
2023-05-10T02:38:27.962Z,50.74
2023-05-10T02:40:57.762Z,50.73
2023-05-10T02:43:26.949Z,50.78
2023-05-10T02:45:55.512Z,50.75
2023-05-10T02:48:23.684Z,50.76
2023-05-10T02:50:53.580Z,50.87
2023-05-10T02:53:32.881Z,50.97
2023-05-10T02:56:05.453Z,50.78
2023-05-10T02:58:34.352Z,51.01
2023-05-10T03:01:02.600Z,50.83
2023-05-10T03:03:30.725Z,51.06
2023-05-10T03:05:59.627Z,51.09
2023-05-10T03:08:30.497Z,50.89
2023-05-10T03:11:11.448Z,51.00
2023-05-10T03:13:55.414Z,50.83
2023-05-10T03:16:36.892Z,50.85
2023-05-10T03:19:12.349Z,50.83
2023-05-10T03:21:45.546Z,50.74
2023-05-10T03:24:16.701Z,50.73
2023-05-10T03:26:46.781Z,50.65
2023-05-10T03:29:18.749Z,50.58
2023-05-10T03:31:47.270Z,50.45
2023-05-10T03:34:15.917Z,50.42
2023-05-10T03:36:44.370Z,50.34
2023-05-10T03:39:12.593Z,50.31
2023-05-10T03:41:41.203Z,50.24
2023-05-10T03:44:10.438Z,50.14
2023-05-10T03:46:38.673Z,50.13
2023-05-10T03:49:07.037Z,50.07
2023-05-10T03:51:35.248Z,49.98
2023-05-10T03:54:03.362Z,49.90
2023-05-10T03:56:31.595Z,49.85
2023-05-10T03:58:59.971Z,49.84
2023-05-10T04:01:28.097Z,49.82
2023-05-10T04:03:56.529Z,49.66
2023-05-10T04:06:24.849Z,49.73
2023-05-10T04:08:53.119Z,49.74
2023-05-10T04:11:23.060Z,49.62
2023-05-10T04:13:51.240Z,49.70
2023-05-10T04:16:19.422Z,49.41
2023-05-10T04:18:47.679Z,49.56
2023-05-10T04:21:15.958Z,49.47
2023-05-10T04:23:44.131Z,49.48
2023-05-10T04:26:12.463Z,49.43
2023-05-10T04:28:40.613Z,49.41
2023-05-10T04:31:11.068Z,49.49
2023-05-10T04:33:39.225Z,49.59
2023-05-10T04:36:08.141Z,49.42
2023-05-10T04:38:36.924Z,49.46
2023-05-10T04:41:06.980Z,49.42
2023-05-10T04:43:35.851Z,49.49
2023-05-10T04:46:04.359Z,49.39
2023-05-10T04:48:32.735Z,49.52
2023-05-10T04:51:00.997Z,49.41
2023-05-10T04:53:29.165Z,49.38
2023-05-10T04:55:57.388Z,49.59
2023-05-10T04:58:25.589Z,49.43
2023-05-10T05:00:53.758Z,49.46
2023-05-10T05:03:21.996Z,49.32
2023-05-10T05:05:50.180Z,49.22
2023-05-10T05:08:18.312Z,49.28
2023-05-10T05:10:46.425Z,49.10
2023-05-10T05:13:14.675Z,49.07
2023-05-10T05:15:42.835Z,49.19
2023-05-10T05:18:11.060Z,48.68
2023-05-10T05:20:39.467Z,48.41
2023-05-10T05:23:07.621Z,48.24
2023-05-10T05:25:35.779Z,48.15
2023-05-10T05:28:04.070Z,48.15
2023-05-10T05:30:32.813Z,47.95
2023-05-10T05:33:01.179Z,47.75
2023-05-10T05:35:29.448Z,47.82
2023-05-10T05:37:57.538Z,47.51
2023-05-10T05:40:25.779Z,47.70
2023-05-10T05:42:54.018Z,47.31
2023-05-10T05:45:22.338Z,47.49
2023-05-10T05:47:50.521Z,47.49
2023-05-10T05:50:19.759Z,47.52
2023-05-10T05:52:47.990Z,47.31
2023-05-10T05:55:16.491Z,47.04
2023-05-10T05:57:44.897Z,46.76
2023-05-10T06:00:13.671Z,46.72
2023-05-10T06:02:41.867Z,46.44
2023-05-10T06:05:10.204Z,46.29
2023-05-10T06:07:38.391Z,46.29
2023-05-10T06:10:07.414Z,45.84
2023-05-10T06:12:36.063Z,45.73
2023-05-10T06:15:05.005Z,45.61
2023-05-10T06:17:33.200Z,45.53
2023-05-10T06:20:01.503Z,45.50
2023-05-10T06:22:29.754Z,45.32
2023-05-10T06:24:57.882Z,45.00
2023-05-10T06:27:26.006Z,44.66
2023-05-10T06:30:02.178Z,44.54
2023-05-10T06:32:37.753Z,44.55
2023-05-10T06:35:06.451Z,44.48
2023-05-10T06:37:35.562Z,44.48
2023-05-10T06:40:04.945Z,44.11
2023-05-10T06:42:33.410Z,43.67
2023-05-10T06:45:01.661Z,43.45
2023-05-10T06:47:29.810Z,43.38
2023-05-10T06:49:58.446Z,43.59
2023-05-10T06:52:26.800Z,43.42
2023-05-10T06:54:55.074Z,42.82
2023-05-10T06:57:31.323Z,42.87
2023-05-10T07:00:00.993Z,42.34
2023-05-10T07:02:29.468Z,42.47
2023-05-10T07:04:59.502Z,42.10
2023-05-10T07:07:30.014Z,41.84
2023-05-10T07:09:58.834Z,41.98
2023-05-10T07:12:27.323Z,41.77
2023-05-10T07:14:55.973Z,41.72
2023-05-10T07:17:24.146Z,41.53
2023-05-10T07:19:52.322Z,41.55
2023-05-10T07:22:20.547Z,56.11
2023-05-10T07:24:48.831Z,62.24
2023-05-10T07:27:17.109Z,64.80
2023-05-10T07:29:45.373Z,68.30
2023-05-10T07:32:13.505Z,75.71
2023-05-10T07:34:41.763Z,78.41
2023-05-10T07:37:09.866Z,87.54
2023-05-10T07:39:38.523Z,91.77
2023-05-10T07:42:06.844Z,93.78
2023-05-10T07:44:35.157Z,95.68
2023-05-10T07:47:03.732Z,96.20
2023-05-10T07:49:32.055Z,96.06
2023-05-10T07:52:00.324Z,95.22
2023-05-10T07:54:28.412Z,91.85
2023-05-10T07:56:56.712Z,87.94
2023-05-10T07:59:25.035Z,84.09
2023-05-10T08:01:53.298Z,80.43
2023-05-10T08:04:21.538Z,77.46
2023-05-10T08:06:49.760Z,75.27
2023-05-10T08:09:18.878Z,74.22
2023-05-10T08:11:47.040Z,71.17
2023-05-10T08:14:15.163Z,67.34
2023-05-10T08:16:43.494Z,65.30
2023-05-10T08:19:11.722Z,63.34
2023-05-10T08:21:41.584Z,61.12
2023-05-10T08:24:09.729Z,59.88
2023-05-10T08:26:38.078Z,58.65
2023-05-10T08:29:06.464Z,59.67
2023-05-10T08:31:34.840Z,56.46
2023-05-10T08:34:03.164Z,55.52
2023-05-10T08:36:31.242Z,54.92
2023-05-10T08:38:59.705Z,53.75
2023-05-10T08:41:28.395Z,52.10
2023-05-10T08:43:56.776Z,51.51
2023-05-10T08:46:24.993Z,56.71
2023-05-10T08:48:55.388Z,55.95
2023-05-10T08:51:27.882Z,55.13
2023-05-10T08:53:56.399Z,54.00
2023-05-10T08:56:25.190Z,53.16
2023-05-10T08:58:53.893Z,52.16
2023-05-10T09:01:22.948Z,52.17
2023-05-10T09:03:52.001Z,51.41
2023-05-10T09:06:20.719Z,52.14
2023-05-10T09:08:49.242Z,52.41
2023-05-10T09:11:18.479Z,50.02
2023-05-10T09:13:49.253Z,49.07
2023-05-10T09:16:21.957Z,48.28
2023-05-10T09:18:50.948Z,51.05
2023-05-10T09:21:21.033Z,49.55
2023-05-10T09:23:51.330Z,48.27
2023-05-10T09:26:23.914Z,47.77
2023-05-10T09:29:00.120Z,46.95
2023-05-10T09:31:57.670Z,47.09
2023-05-10T09:34:33.444Z,49.62
2023-05-10T09:37:03.739Z,49.17
2023-05-10T09:39:33.627Z,48.36
2023-05-10T09:42:04.999Z,47.71
2023-05-10T09:44:34.594Z,46.85
2023-05-10T09:47:03.949Z,45.52
2023-05-10T09:49:32.202Z,44.60
2023-05-10T09:52:05.706Z,44.42
2023-05-10T09:54:34.575Z,44.73
2023-05-10T09:57:03.285Z,44.18
2023-05-10T09:59:31.507Z,43.43
2023-05-10T10:02:01.781Z,43.03
2023-05-10T10:04:30.234Z,42.39
2023-05-10T10:07:05.143Z,42.57
2023-05-10T10:09:34.869Z,42.17
2023-05-10T10:12:03.885Z,42.06
2023-05-10T10:14:32.010Z,41.02
2023-05-10T10:19:38.113Z,40.79
2023-05-10T10:22:07.033Z,39.89
2023-05-10T10:24:35.457Z,39.41
2023-05-10T10:27:37.182Z,39.42
2023-05-10T10:30:18.160Z,39.24
2023-05-10T10:32:49.467Z,39.20
2023-05-10T10:35:17.959Z,38.99
2023-05-10T10:37:48.036Z,39.13
2023-05-10T10:40:34.688Z,39.16
2023-05-10T10:43:22.075Z,38.85
2023-05-10T10:46:15.380Z,38.40
2023-05-10T10:48:52.725Z,37.32
2023-05-10T10:51:21.095Z,36.71
2023-05-10T10:53:49.476Z,36.22
2023-05-10T10:56:24.736Z,36.12
2023-05-10T10:58:54.340Z,36.08
2023-05-10T11:01:22.511Z,35.39
2023-05-10T11:04:05.617Z,41.66
2023-05-10T11:06:36.032Z,39.07
2023-05-10T11:09:12.751Z,38.88
2023-05-10T11:11:56.490Z,39.40
2023-05-10T11:14:24.827Z,39.28
2023-05-10T11:16:53.066Z,38.64
2023-05-10T11:19:21.332Z,38.59
2023-05-10T11:21:50.900Z,38.22
2023-05-10T11:24:21.773Z,38.09
2023-05-10T11:26:53.187Z,38.03
2023-05-10T11:29:21.532Z,38.69
2023-05-10T11:31:50.710Z,38.77
2023-05-10T11:34:34.773Z,39.06
2023-05-10T11:37:03.124Z,38.84
2023-05-10T11:39:32.974Z,38.50
2023-05-10T11:42:01.415Z,37.88
2023-05-10T11:44:35.942Z,37.85
2023-05-10T11:47:04.397Z,38.14
2023-05-10T11:49:32.675Z,38.55
2023-05-10T11:52:08.368Z,38.34
2023-05-10T11:54:37.009Z,37.62
2023-05-10T11:57:05.586Z,37.91
2023-05-10T11:59:33.755Z,38.08
2023-05-10T12:02:02.183Z,37.45
2023-05-10T12:04:31.327Z,36.67
2023-05-10T12:06:59.920Z,34.85
2023-05-10T12:09:42.784Z,34.14
2023-05-10T12:12:18.009Z,33.38
2023-05-10T12:14:51.446Z,39.88
2023-05-10T12:17:19.405Z,37.61
2023-05-10T12:19:48.300Z,36.64
2023-05-10T12:22:16.371Z,36.05
2023-05-10T12:24:46.534Z,35.28
2023-05-10T12:27:34.032Z,35.32
2023-05-10T12:30:03.667Z,34.78
2023-05-10T12:32:42.662Z,34.70
2023-05-10T12:35:10.990Z,34.03
2023-05-10T12:37:41.886Z,33.37
2023-05-10T12:40:14.518Z,32.97
2023-05-10T12:42:42.952Z,32.42
2023-05-10T12:45:11.518Z,32.70
2023-05-10T12:47:42.205Z,33.12
2023-05-10T12:50:12.357Z,32.85
2023-05-10T12:52:40.970Z,32.98
2023-05-10T12:55:09.476Z,33.15
2023-05-10T12:57:37.686Z,33.20
2023-05-10T13:00:06.672Z,32.57
2023-05-10T13:02:34.876Z,31.93
2023-05-10T13:05:03.072Z,31.68
2023-05-10T13:07:31.255Z,31.32
2023-05-10T13:09:59.367Z,31.33
2023-05-10T13:12:27.430Z,31.49
2023-05-10T13:14:55.442Z,31.60
2023-05-10T13:17:23.831Z,32.13
2023-05-10T13:19:51.893Z,32.30
2023-05-10T13:22:28.790Z,32.29
2023-05-10T13:25:05.192Z,32.34
2023-05-10T13:27:33.317Z,32.40
2023-05-10T13:30:01.616Z,32.32
2023-05-10T13:32:30.230Z,31.78
2023-05-10T13:34:58.391Z,31.31
2023-05-10T13:37:26.600Z,30.82
2023-05-10T13:39:54.667Z,30.85
2023-05-10T13:42:25.912Z,31.16
2023-05-10T13:44:54.248Z,31.28
2023-05-10T13:47:23.719Z,31.20
2023-05-10T13:49:51.813Z,30.24
2023-05-10T13:52:20.123Z,29.70
2023-05-10T13:54:48.269Z,29.17
2023-05-10T13:57:17.842Z,28.62
2023-05-10T13:59:45.979Z,35.19
2023-05-10T14:02:14.312Z,33.11
2023-05-10T14:04:42.483Z,33.15
2023-05-10T14:07:11.239Z,32.81
2023-05-10T14:09:39.327Z,32.83
2023-05-10T14:12:07.471Z,32.93
2023-05-10T14:14:35.724Z,32.27
2023-05-10T14:17:03.821Z,32.01
2023-05-10T14:19:33.618Z,32.00
2023-05-10T14:22:01.793Z,32.40
2023-05-10T14:24:29.863Z,31.93
2023-05-10T14:26:58.207Z,31.87
2023-05-10T14:29:26.553Z,31.63
2023-05-10T14:31:54.693Z,31.72
2023-05-10T14:34:22.930Z,31.50
2023-05-10T14:36:51.484Z,31.11
2023-05-10T14:39:19.577Z,30.42
2023-05-10T14:41:48.332Z,30.56
2023-05-10T14:44:16.558Z,30.02
2023-05-10T14:46:44.738Z,29.89
2023-05-10T14:49:13.175Z,29.69
2023-05-10T14:51:41.455Z,29.57
2023-05-10T14:54:09.582Z,30.12
2023-05-10T14:56:38.929Z,30.22
2023-05-10T14:59:07.073Z,30.02
2023-05-10T15:01:38.665Z,30.28
2023-05-10T15:04:07.279Z,30.45
2023-05-10T15:06:36.367Z,29.95
2023-05-10T15:09:04.847Z,29.86
2023-05-10T15:11:33.216Z,29.88
2023-05-10T15:14:02.823Z,29.82
2023-05-10T15:16:32.282Z,30.18
2023-05-10T15:19:02.413Z,30.20
2023-05-10T15:21:36.319Z,30.07
2023-05-10T15:24:04.609Z,30.28
2023-05-10T15:26:32.772Z,30.42
2023-05-10T15:29:00.994Z,30.27
2023-05-10T15:31:29.235Z,29.99
2023-05-10T15:34:00.464Z,29.69
2023-05-10T15:36:28.531Z,29.79
2023-05-10T15:38:56.945Z,29.78
2023-05-10T15:41:25.776Z,29.70
2023-05-10T15:43:54.765Z,29.57
2023-05-10T15:46:23.023Z,29.86
2023-05-10T15:48:51.123Z,29.83
2023-05-10T15:51:19.823Z,29.91
2023-05-10T15:54:05.257Z,30.12
2023-05-10T15:56:36.281Z,30.08
2023-05-10T15:59:06.155Z,29.95
2023-05-10T16:01:34.666Z,30.08
2023-05-10T16:04:02.990Z,30.02
2023-05-10T16:06:31.511Z,29.65
2023-05-10T16:08:59.816Z,29.44
2023-05-10T16:11:27.959Z,29.29
2023-05-10T16:13:56.171Z,29.45
2023-05-10T16:16:24.709Z,29.31
2023-05-10T16:18:53.357Z,29.35
2023-05-10T16:21:21.597Z,29.49
2023-05-10T16:23:49.778Z,29.34
2023-05-10T16:26:17.855Z,29.66
2023-05-10T16:28:47.006Z,29.73
2023-05-10T16:31:15.455Z,29.99
2023-05-10T16:33:43.803Z,30.46
2023-05-10T16:36:12.045Z,30.62
2023-05-10T16:38:40.349Z,30.97
2023-05-10T16:41:08.746Z,31.00
2023-05-10T16:43:36.898Z,31.12
2023-05-10T16:46:10.467Z,31.15
2023-05-10T16:48:39.259Z,31.30
2023-05-10T16:51:08.006Z,31.59
2023-05-10T16:53:36.491Z,31.69
2023-05-10T16:56:04.731Z,31.89
2023-05-10T16:58:32.954Z,31.88
2023-05-10T17:01:01.169Z,32.16
2023-05-10T17:03:29.455Z,32.47
2023-05-10T17:05:59.087Z,32.44
2023-05-10T17:08:27.371Z,32.73
2023-05-10T17:10:56.431Z,32.97
2023-05-10T17:13:24.611Z,33.01
2023-05-10T17:15:53.359Z,33.17
2023-05-10T17:18:21.700Z,33.09
2023-05-10T17:20:50.773Z,33.39
2023-05-10T17:23:18.933Z,33.49
2023-05-10T17:25:47.250Z,33.76
2023-05-10T17:28:15.474Z,34.09
2023-05-10T17:30:44.627Z,34.24
2023-05-10T17:33:12.898Z,34.53
2023-05-10T17:35:41.063Z,34.66
2023-05-10T17:38:09.250Z,35.04
2023-05-10T17:40:40.664Z,35.08
2023-05-10T17:43:08.821Z,35.00
2023-05-10T17:45:36.961Z,35.00
2023-05-10T17:48:05.158Z,35.32
2023-05-10T17:50:33.880Z,35.61
2023-05-10T17:53:03.013Z,35.75
2023-05-10T17:55:31.385Z,35.80
2023-05-10T17:58:00.136Z,35.98
2023-05-10T18:00:28.482Z,36.14
2023-05-10T18:02:56.635Z,36.28
2023-05-10T18:05:24.832Z,36.41
2023-05-10T18:07:53.050Z,36.67
2023-05-10T18:10:21.292Z,36.71
2023-05-10T18:12:50.894Z,36.84
2023-05-10T18:15:19.192Z,36.95
2023-05-10T18:17:49.761Z,37.14
2023-05-10T18:20:17.995Z,37.47
2023-05-10T18:22:46.154Z,37.46
2023-05-10T18:25:14.375Z,37.48
2023-05-10T18:27:42.920Z,37.65
2023-05-10T18:30:12.651Z,37.62
2023-05-10T18:32:41.037Z,37.65
2023-05-10T18:35:09.697Z,37.85
2023-05-10T18:37:38.966Z,37.95
2023-05-10T18:40:14.412Z,38.06
2023-05-10T18:42:42.613Z,38.25
2023-05-10T18:45:11.743Z,38.28
2023-05-10T18:47:39.876Z,38.30
2023-05-10T18:50:08.514Z,38.60
2023-05-10T18:52:39.611Z,38.56
2023-05-10T18:55:08.718Z,38.72
2023-05-10T18:57:41.459Z,38.78
2023-05-10T19:00:12.437Z,38.76
2023-05-10T19:02:41.310Z,39.02
2023-05-10T19:05:09.923Z,39.00
2023-05-10T19:07:38.357Z,39.09
2023-05-10T19:10:07.083Z,39.25
2023-05-10T19:12:35.516Z,39.47
2023-05-10T19:15:03.923Z,39.55
2023-05-10T19:17:32.330Z,39.42
2023-05-10T19:20:02.716Z,39.64
2023-05-10T19:22:47.107Z,39.39
2023-05-10T19:25:21.038Z,39.70
2023-05-10T19:27:49.265Z,39.49
2023-05-10T19:30:17.646Z,39.79
2023-05-10T19:32:45.775Z,39.74
2023-05-10T19:35:14.054Z,39.78
2023-05-10T19:37:47.342Z,40.04
2023-05-10T19:40:16.052Z,40.02
2023-05-10T19:42:44.263Z,40.23
2023-05-10T19:45:12.584Z,40.05
2023-05-10T19:47:42.085Z,40.26
2023-05-10T19:50:12.488Z,40.22
2023-05-10T19:52:40.927Z,40.53
2023-05-10T19:55:09.433Z,40.43
2023-05-10T19:57:37.933Z,40.23
2023-05-10T20:00:06.853Z,40.54
2023-05-10T20:02:39.285Z,40.72
2023-05-10T20:05:07.976Z,40.77
2023-05-10T20:07:37.024Z,40.83
2023-05-10T20:10:05.520Z,40.65
2023-05-10T20:12:33.778Z,40.83
2023-05-10T20:15:01.942Z,40.66
2023-05-10T20:17:30.503Z,40.78
2023-05-10T20:19:58.735Z,40.79
2023-05-10T20:22:27.026Z,41.01
2023-05-10T20:24:56.327Z,41.06
2023-05-10T20:27:24.806Z,41.34
2023-05-10T20:29:53.462Z,41.31
2023-05-10T20:32:21.599Z,41.41
2023-05-10T20:34:50.113Z,41.19
2023-05-10T20:37:18.324Z,41.43
2023-05-10T20:39:48.435Z,41.48
2023-05-10T20:42:18.071Z,41.53
2023-05-10T20:44:46.152Z,41.53
2023-05-10T20:47:18.206Z,41.79
2023-05-10T20:49:46.404Z,41.70
2023-05-10T20:52:14.519Z,41.80
2023-05-10T20:54:42.614Z,41.95
2023-05-10T20:57:12.918Z,41.81
2023-05-10T20:59:41.104Z,42.07
2023-05-10T21:02:09.359Z,42.02
2023-05-10T21:04:37.529Z,42.22
2023-05-10T21:07:05.761Z,42.30
2023-05-10T21:09:35.286Z,42.30
2023-05-10T21:12:03.525Z,42.42
2023-05-10T21:14:31.737Z,42.33
2023-05-10T21:16:59.945Z,42.51
2023-05-10T21:19:28.092Z,42.69
2023-05-10T21:21:57.413Z,42.45
2023-05-10T21:24:25.931Z,42.81
2023-05-10T21:26:54.084Z,42.64
2023-05-10T21:29:22.379Z,42.72
2023-05-10T21:31:50.677Z,42.72
2023-05-10T21:34:19.014Z,42.90
2023-05-10T21:36:47.130Z,42.77
2023-05-10T21:39:15.296Z,42.87
2023-05-10T21:41:43.402Z,42.98
2023-05-10T21:44:11.725Z,43.01
2023-05-10T21:46:39.776Z,43.14
2023-05-10T21:49:08.297Z,43.21
2023-05-10T21:51:36.439Z,43.14
2023-05-10T21:54:04.789Z,43.35
2023-05-10T21:56:32.961Z,43.30
2023-05-10T21:59:01.248Z,43.34
2023-05-10T22:01:29.482Z,43.46
2023-05-10T22:03:57.652Z,43.51
2023-05-10T22:06:25.837Z,43.45
2023-05-10T22:08:53.896Z,43.61
2023-05-10T22:11:22.101Z,43.71
2023-05-10T22:13:50.262Z,43.65
2023-05-10T22:16:18.373Z,43.64
2023-05-10T22:18:46.745Z,43.68
2023-05-10T22:21:14.990Z,43.86
2023-05-10T22:23:43.509Z,43.96
2023-05-10T22:26:12.064Z,43.87
2023-05-10T22:28:40.179Z,43.92
2023-05-10T22:31:11.951Z,43.95
2023-05-10T22:33:40.434Z,44.05
2023-05-10T22:36:08.826Z,43.96
2023-05-10T22:38:37.677Z,44.17
2023-05-10T22:41:05.823Z,44.22
2023-05-10T22:43:34.289Z,44.32
2023-05-10T22:46:02.387Z,44.22
2023-05-10T22:48:34.382Z,44.21
2023-05-10T22:51:02.629Z,44.28
2023-05-10T22:53:30.974Z,44.45
2023-05-10T22:55:59.250Z,44.52
2023-05-10T22:58:27.562Z,44.48
2023-05-10T23:00:55.770Z,44.51
2023-05-10T23:03:24.885Z,44.49
2023-05-10T23:05:53.055Z,44.74
2023-05-10T23:08:21.372Z,44.61
2023-05-10T23:10:49.556Z,44.89
2023-05-10T23:13:18.909Z,44.87
2023-05-10T23:15:47.333Z,44.96
2023-05-10T23:18:15.701Z,45.02
2023-05-10T23:20:44.508Z,45.24
2023-05-10T23:23:12.676Z,45.08
2023-05-10T23:25:40.831Z,45.28
2023-05-10T23:28:08.960Z,45.43
2023-05-10T23:30:37.064Z,45.35
2023-05-10T23:33:05.197Z,45.62
2023-05-10T23:35:33.297Z,45.57
2023-05-10T23:38:02.177Z,45.75
2023-05-10T23:40:30.341Z,45.78
2023-05-10T23:42:58.419Z,45.89
2023-05-10T23:45:26.583Z,45.95
2023-05-10T23:47:54.749Z,45.98
2023-05-10T23:50:23.104Z,46.07
2023-05-10T23:52:51.324Z,46.13
2023-05-10T23:55:19.468Z,46.26
2023-05-10T23:57:47.540Z,46.35
